Meio Maru — JD4157 — position and weather

sailwx.info

Track history (hours):
 
Tides and Currents Weather Stations Pressure Air Temp Water Temp Dewpoint Dewpoint Depression Visibility Wind Speed Wind Dir Waves Ship Positions

Meio Maru

Last reported at 2017-Oct-05 00:47 UTC. Time now 2017-Oct-17 11:28 UTC.
Position N 34°38' E 134°59'.
Warning: this ship's position is 12 days out of date.

Length 74 m; draft 4 m.

Type: Cargo ship. MMSI: 431009191.

Date/timePositionNaut miles runAvg speedWind from/ knotsBaromVisibWave heightAir tempDewpointWater temp
2017-Oct-05 00:47N 34°38' E 134°59'412.3
2017-Oct-05 00:28N 34°36' E 135°03'611.2
2017-Oct-04 23:57N 34°34' E 135°10'612.1
2017-Oct-04 23:29N 34°32' E 135°16'611.8
2017-Oct-04 23:00N 34°28' E 135°21'1 1.1
2017-Oct-04 22:30N 34°27' E 135°21'0 0.0
2017-Oct-04 22:00N 34°27' E 135°21'0 0.0
2017-Oct-04 21:30N 34°27' E 135°21'1 1.3
2017-Oct-04 21:00N 34°28' E 135°21'1 3.0
2017-Oct-04 20:30N 34°29' E 135°20'0 0.0
2017-Oct-04 19:56N 34°29' E 135°20'0 0.0
2017-Oct-04 19:26N 34°29' E 135°20'0 0.0
2017-Oct-04 18:56N 34°29' E 135°20'0 0.0
2017-Oct-04 18:26N 34°29' E 135°20'0 0.0
2017-Oct-04 17:44N 34°29' E 135°20'0 0.0
2017-Oct-04 17:26N 34°29' E 135°20'0 0.0
2017-Oct-04 16:56N 34°29' E 135°20'0 0.0
2017-Oct-04 16:26N 34°29' E 135°20'0 0.0
2017-Oct-04 15:56N 34°29' E 135°20'0 0.0
2017-Oct-04 15:26N 34°29' E 135°20'0 0.0
2017-Oct-04 14:56N 34°29' E 135°20'0 0.0
2017-Oct-04 14:26N 34°29' E 135°20'1 1.5
2017-Oct-04 13:59N 34°29' E 135°19'510.5
2017-Oct-04 13:30N 34°27' E 135°13'510.6
2017-Oct-04 13:00N 34°23' E 135°09'1010.3
2017-Oct-04 12:05N 34°15' E 135°03'111.2
2017-Oct-04 11:59N 34°14' E 135°03'511.4
2017-Oct-04 11:30N 34°09' E 135°02'225 9.2
2017-Oct-03 10:57N 34°58' E 139°28'511.6
2017-Oct-03 10:30N 35°02' E 139°33'611.6
2017-Oct-03 10:00N 35°06' E 139°38'611.2
2017-Oct-03 09:30N 35°09' E 139°43'611.4
2017-Oct-03 09:00N 35°14' E 139°46'612.1
2017-Oct-03 08:30N 35°20' E 139°43'511.1
2017-Oct-03 08:01N 35°25' E 139°44'611.4
2017-Oct-03 07:31N 35°29' E 139°50'  
2017-Sep-25 10:32N 34°36' E 134°54'011.3
2017-Sep-25 10:30N 34°36' E 134°54'610.4
2017-Sep-25 09:54N 34°37' E 135°02'3 8.3
2017-Sep-25 09:30N 34°36' E 135°05'611.3
2017-Sep-25 09:00N 34°36' E 135°12'611.3
2017-Sep-25 08:30N 34°37' E 135°19'5 3.7
2017-Sep-25 07:01N 34°35' E 135°26'0 0.2
2017-Sep-25 06:43N 34°35' E 135°26'0 0.0
2017-Sep-25 05:37N 34°35' E 135°26'0 0.0
2017-Sep-25 05:25N 34°35' E 135°26'0 0.0
2017-Sep-25 04:49N 34°35' E 135°26'0 0.0
2017-Sep-25 02:19N 34°35' E 135°26'0 0.0
2017-Sep-25 01:55N 34°35' E 135°26'  
Track history (hours):
 
Tides and Currents Weather Stations Pressure Air Temp Water Temp Dewpoint Dewpoint Depression Visibility Wind Speed Wind Dir Waves Ship Positions

Meio Maru

Last reported at 2017-Oct-05 00:47 UTC. Time now 2017-Oct-17 11:28 UTC.
Position N 34°38' E 134°59'.
Warning: this ship's position is 12 days out of date.

Length 74 m; draft 4 m.

Type: Cargo ship. MMSI: 431009191.

Date/timePositionNaut miles runAvg speedWind from/ knotsBaromVisibWave heightAir tempDewpointWater temp
2017-Oct-05 00:47N 34°38' E 134°59'412.3
2017-Oct-05 00:28N 34°36' E 135°03'611.2
2017-Oct-04 23:57N 34°34' E 135°10'612.1
2017-Oct-04 23:29N 34°32' E 135°16'611.8
2017-Oct-04 23:00N 34°28' E 135°21'1 1.1
2017-Oct-04 22:30N 34°27' E 135°21'0 0.0
2017-Oct-04 22:00N 34°27' E 135°21'0 0.0
2017-Oct-04 21:30N 34°27' E 135°21'1 1.3
2017-Oct-04 21:00N 34°28' E 135°21'1 3.0
2017-Oct-04 20:30N 34°29' E 135°20'0 0.0
2017-Oct-04 19:56N 34°29' E 135°20'0 0.0
2017-Oct-04 19:26N 34°29' E 135°20'0 0.0
2017-Oct-04 18:56N 34°29' E 135°20'0 0.0
2017-Oct-04 18:26N 34°29' E 135°20'0 0.0
2017-Oct-04 17:44N 34°29' E 135°20'0 0.0
2017-Oct-04 17:26N 34°29' E 135°20'0 0.0
2017-Oct-04 16:56N 34°29' E 135°20'0 0.0
2017-Oct-04 16:26N 34°29' E 135°20'0 0.0
2017-Oct-04 15:56N 34°29' E 135°20'0 0.0
2017-Oct-04 15:26N 34°29' E 135°20'0 0.0
2017-Oct-04 14:56N 34°29' E 135°20'0 0.0
2017-Oct-04 14:26N 34°29' E 135°20'1 1.5
2017-Oct-04 13:59N 34°29' E 135°19'510.5
2017-Oct-04 13:30N 34°27' E 135°13'510.6
2017-Oct-04 13:00N 34°23' E 135°09'1010.3
2017-Oct-04 12:05N 34°15' E 135°03'111.2
2017-Oct-04 11:59N 34°14' E 135°03'511.4
2017-Oct-04 11:30N 34°09' E 135°02'225 9.2
2017-Oct-03 10:57N 34°58' E 139°28'511.6
2017-Oct-03 10:30N 35°02' E 139°33'611.6
2017-Oct-03 10:00N 35°06' E 139°38'611.2
2017-Oct-03 09:30N 35°09' E 139°43'611.4
2017-Oct-03 09:00N 35°14' E 139°46'612.1
2017-Oct-03 08:30N 35°20' E 139°43'511.1
2017-Oct-03 08:01N 35°25' E 139°44'611.4
2017-Oct-03 07:31N 35°29' E 139°50'  
2017-Sep-25 10:32N 34°36' E 134°54'011.3
2017-Sep-25 10:30N 34°36' E 134°54'610.4
2017-Sep-25 09:54N 34°37' E 135°02'3 8.3
2017-Sep-25 09:30N 34°36' E 135°05'611.3
2017-Sep-25 09:00N 34°36' E 135°12'611.3
2017-Sep-25 08:30N 34°37' E 135°19'5 3.7
2017-Sep-25 07:01N 34°35' E 135°26'0 0.2
2017-Sep-25 06:43N 34°35' E 135°26'0 0.0
2017-Sep-25 05:37N 34°35' E 135°26'0 0.0
2017-Sep-25 05:25N 34°35' E 135°26'0 0.0
2017-Sep-25 04:49N 34°35' E 135°26'0 0.0
2017-Sep-25 02:19N 34°35' E 135°26'0 0.0
2017-Sep-25 01:55N 34°35' E 135°26'  

Dump ship's entire track history